sensor_id;sensor_type;location;lat;lon;timestamp;pressure;altitude;pressure_sealevel;temperature;humidity
57250;BME280;43102;52.014;-0.680;2023-09-18T00:00:00;99453;;;23.66;62.13
57250;BME280;43102;52.014;-0.680;2023-09-18T00:01:00;99453;;;23.66;62.13
57250;BME280;43102;52.014;-0.680;2023-09-18T00:02:00;99453;;;23.66;62.13
57250;BME280;43102;52.014;-0.680;2023-09-18T00:03:00;99429;;;23.66;62.18
57250;BME280;43102;52.014;-0.680;2023-09-18T00:04:00;99429;;;23.66;62.18
57250;BME280;43102;52.014;-0.680;2023-09-18T00:05:00;99429;;;23.66;62.18
57250;BME280;43102;52.014;-0.680;2023-09-18T00:06:00;99429;;;23.66;62.18
57250;BME280;43102;52.014;-0.680;2023-09-18T00:07:00;99429;;;23.66;62.18
57250;BME280;43102;52.014;-0.680;2023-09-18T00:08:00;99427;;;23.66;62.21
57250;BME280;43102;52.014;-0.680;2023-09-18T00:09:00;99427;;;23.66;62.21
57250;BME280;43102;52.014;-0.680;2023-09-18T00:10:00;99427;;;23.66;62.21
57250;BME280;43102;52.014;-0.680;2023-09-18T00:11:00;99427;;;23.66;62.21
57250;BME280;43102;52.014;-0.680;2023-09-18T00:12:00;99427;;;23.66;62.21
57250;BME280;43102;52.014;-0.680;2023-09-18T00:13:00;99407;;;23.66;62.24
57250;BME280;43102;52.014;-0.680;2023-09-18T00:14:00;99407;;;23.66;62.24
57250;BME280;43102;52.014;-0.680;2023-09-18T00:15:00;99407;;;23.66;62.24
57250;BME280;43102;52.014;-0.680;2023-09-18T00:16:00;99407;;;23.66;62.24
57250;BME280;43102;52.014;-0.680;2023-09-18T00:17:00;99407;;;23.66;62.24
57250;BME280;43102;52.014;-0.680;2023-09-18T00:18:00;99399;;;23.68;62.14
57250;BME280;43102;52.014;-0.680;2023-09-18T00:19:00;99399;;;23.68;62.14
57250;BME280;43102;52.014;-0.680;2023-09-18T00:20:00;99399;;;23.68;62.14
57250;BME280;43102;52.014;-0.680;2023-09-18T00:21:00;99399;;;23.68;62.14
57250;BME280;43102;52.014;-0.680;2023-09-18T00:22:00;99399;;;23.68;62.14
57250;BME280;43102;52.014;-0.680;2023-09-18T00:23:00;99382;;;23.67;62.20
57250;BME280;43102;52.014;-0.680;2023-09-18T00:24:00;99382;;;23.67;62.20
57250;BME280;43102;52.014;-0.680;2023-09-18T00:25:00;99382;;;23.67;62.20
57250;BME280;43102;52.014;-0.680;2023-09-18T00:26:00;99382;;;23.67;62.20
57250;BME280;43102;52.014;-0.680;2023-09-18T00:27:00;99382;;;23.67;62.20
57250;BME280;43102;52.014;-0.680;2023-09-18T00:28:00;99362;;;23.62;62.56
57250;BME280;43102;52.014;-0.680;2023-09-18T00:29:00;99362;;;23.62;62.56
57250;BME280;43102;52.014;-0.680;2023-09-18T00:30:00;99362;;;23.62;62.56
57250;BME280;43102;52.014;-0.680;2023-09-18T00:31:00;99362;;;23.62;62.56
57250;BME280;43102;52.014;-0.680;2023-09-18T00:32:00;99362;;;23.62;62.56
57250;BME280;43102;52.014;-0.680;2023-09-18T00:33:00;99362;;;23.64;62.55
57250;BME280;43102;52.014;-0.680;2023-09-18T00:34:00;99362;;;23.64;62.55
57250;BME280;43102;52.014;-0.680;2023-09-18T00:35:00;99362;;;23.64;62.55
57250;BME280;43102;52.014;-0.680;2023-09-18T00:36:00;99362;;;23.64;62.55
57250;BME280;43102;52.014;-0.680;2023-09-18T00:37:00;99362;;;23.64;62.55
57250;BME280;43102;52.014;-0.680;2023-09-18T00:38:00;99382;;;23.63;62.63
57250;BME280;43102;52.014;-0.680;2023-09-18T00:39:00;99382;;;23.63;62.63
57250;BME280;43102;52.014;-0.680;2023-09-18T00:40:00;99382;;;23.63;62.63
57250;BME280;43102;52.014;-0.680;2023-09-18T00:41:00;99382;;;23.63;62.63
57250;BME280;43102;52.014;-0.680;2023-09-18T00:42:00;99382;;;23.63;62.63
57250;BME280;43102;52.014;-0.680;2023-09-18T00:43:00;99381;;;23.69;62.40
57250;BME280;43102;52.014;-0.680;2023-09-18T00:44:00;99381;;;23.69;62.40
57250;BME280;43102;52.014;-0.680;2023-09-18T00:45:00;99381;;;23.69;62.40
57250;BME280;43102;52.014;-0.680;2023-09-18T00:46:00;99381;;;23.69;62.40
57250;BME280;43102;52.014;-0.680;2023-09-18T00:47:00;99381;;;23.69;62.40
57250;BME280;43102;52.014;-0.680;2023-09-18T00:48:00;99376;;;23.65;62.61
57250;BME280;43102;52.014;-0.680;2023-09-18T00:49:00;99376;;;23.65;62.61
57250;BME280;43102;52.014;-0.680;2023-09-18T00:50:00;99376;;;23.65;62.61
57250;BME280;43102;52.014;-0.680;2023-09-18T00:51:00;99376;;;23.65;62.61
57250;BME280;43102;52.014;-0.680;2023-09-18T00:52:00;99376;;;23.65;62.61
57250;BME280;43102;52.014;-0.680;2023-09-18T00:53:00;99377;;;23.64;62.16
57250;BME280;43102;52.014;-0.680;2023-09-18T00:54:00;99377;;;23.64;62.16
57250;BME280;43102;52.014;-0.680;2023-09-18T00:55:00;99377;;;23.64;62.16
57250;BME280;43102;52.014;-0.680;2023-09-18T00:56:00;99377;;;23.64;62.16
57250;BME280;43102;52.014;-0.680;2023-09-18T00:57:00;99377;;;23.64;62.16
57250;BME280;43102;52.014;-0.680;2023-09-18T00:58:00;99367;;;23.54;62.66
57250;BME280;43102;52.014;-0.680;2023-09-18T00:59:00;99367;;;23.54;62.66
57250;BME280;43102;52.014;-0.680;2023-09-18T01:00:00;99367;;;23.54;62.66
57250;BME280;43102;52.014;-0.680;2023-09-18T01:01:00;99367;;;23.54;62.66
57250;BME280;43102;52.014;-0.680;2023-09-18T01:02:02;99367;;;23.54;62.66
57250;BME280;43102;52.014;-0.680;2023-09-18T01:03:01;99367;;;23.44;62.81
57250;BME280;43102;52.014;-0.680;2023-09-18T01:04:00;99367;;;23.44;62.81
57250;BME280;43102;52.014;-0.680;2023-09-18T01:05:00;99367;;;23.44;62.81
57250;BME280;43102;52.014;-0.680;2023-09-18T01:06:00;99367;;;23.44;62.81
57250;BME280;43102;52.014;-0.680;2023-09-18T01:07:00;99367;;;23.44;62.81
57250;BME280;43102;52.014;-0.680;2023-09-18T01:08:00;99364;;;23.37;63.47
57250;BME280;43102;52.014;-0.680;2023-09-18T01:09:00;99364;;;23.37;63.47
57250;BME280;43102;52.014;-0.680;2023-09-18T01:10:00;99364;;;23.37;63.47
57250;BME280;43102;52.014;-0.680;2023-09-18T01:11:05;99364;;;23.37;63.47
57250;BME280;43102;52.014;-0.680;2023-09-18T01:12:02;99364;;;23.37;63.47
57250;BME280;43102;52.014;-0.680;2023-09-18T01:13:04;99350;;;23.47;62.52
57250;BME280;43102;52.014;-0.680;2023-09-18T01:15:08;99350;;;23.47;62.52
57250;BME280;43102;52.014;-0.680;2023-09-18T01:16:02;99350;;;23.47;62.52
57250;BME280;43102;52.014;-0.680;2023-09-18T01:17:00;99350;;;23.47;62.52
57250;BME280;43102;52.014;-0.680;2023-09-18T01:18:00;99332;;;23.46;61.87
57250;BME280;43102;52.014;-0.680;2023-09-18T01:19:00;99332;;;23.46;61.87
57250;BME280;43102;52.014;-0.680;2023-09-18T01:20:00;99332;;;23.46;61.87
57250;BME280;43102;52.014;-0.680;2023-09-18T01:21:00;99332;;;23.46;61.87
57250;BME280;43102;52.014;-0.680;2023-09-18T01:22:00;99332;;;23.46;61.87
57250;BME280;43102;52.014;-0.680;2023-09-18T01:23:00;99304;;;23.43;61.45
57250;BME280;43102;52.014;-0.680;2023-09-18T01:24:00;99304;;;23.43;61.45
57250;BME280;43102;52.014;-0.680;2023-09-18T01:25:00;99304;;;23.43;61.45
57250;BME280;43102;52.014;-0.680;2023-09-18T01:26:00;99304;;;23.43;61.45
57250;BME280;43102;52.014;-0.680;2023-09-18T01:27:00;99304;;;23.43;61.45
57250;BME280;43102;52.014;-0.680;2023-09-18T01:28:00;99287;;;23.37;61.74
57250;BME280;43102;52.014;-0.680;2023-09-18T01:29:00;99287;;;23.37;61.74
57250;BME280;43102;52.014;-0.680;2023-09-18T01:30:00;99287;;;23.37;61.74
57250;BME280;43102;52.014;-0.680;2023-09-18T01:31:00;99287;;;23.37;61.74
57250;BME280;43102;52.014;-0.680;2023-09-18T01:32:00;99287;;;23.37;61.74
57250;BME280;43102;52.014;-0.680;2023-09-18T01:33:00;99286;;;23.42;60.91
57250;BME280;43102;52.014;-0.680;2023-09-18T01:34:00;99286;;;23.42;60.91
57250;BME280;43102;52.014;-0.680;2023-09-18T01:35:00;99286;;;23.42;60.91
57250;BME280;43102;52.014;-0.680;2023-09-18T01:36:00;99286;;;23.42;60.91
57250;BME280;43102;52.014;-0.680;2023-09-18T01:37:00;99286;;;23.42;60.91
57250;BME280;43102;52.014;-0.680;2023-09-18T01:38:00;99288;;;23.32;60.52
57250;BME280;43102;52.014;-0.680;2023-09-18T01:39:00;99288;;;23.32;60.52
57250;BME280;43102;52.014;-0.680;2023-09-18T01:40:00;99288;;;23.32;60.52
57250;BME280;43102;52.014;-0.680;2023-09-18T01:41:00;99288;;;23.32;60.52
57250;BME280;43102;52.014;-0.680;2023-09-18T01:42:02;99288;;;23.32;60.52
57250;BME280;43102;52.014;-0.680;2023-09-18T01:43:00;99280;;;23.19;60.29
57250;BME280;43102;52.014;-0.680;2023-09-18T01:44:00;99280;;;23.19;60.29
57250;BME280;43102;52.014;-0.680;2023-09-18T01:45:00;99280;;;23.19;60.29
57250;BME280;43102;52.014;-0.680;2023-09-18T01:46:00;99280;;;23.19;60.29
57250;BME280;43102;52.014;-0.680;2023-09-18T01:47:01;99280;;;23.19;60.29
57250;BME280;43102;52.014;-0.680;2023-09-18T01:48:00;99274;;;23.10;60.25
57250;BME280;43102;52.014;-0.680;2023-09-18T01:49:00;99274;;;23.10;60.25
57250;BME280;43102;52.014;-0.680;2023-09-18T01:50:02;99274;;;23.10;60.25
57250;BME280;43102;52.014;-0.680;2023-09-18T01:51:00;99274;;;23.10;60.25
57250;BME280;43102;52.014;-0.680;2023-09-18T01:52:00;99274;;;23.10;60.25
57250;BME280;43102;52.014;-0.680;2023-09-18T01:53:00;99265;;;23.00;60.06
57250;BME280;43102;52.014;-0.680;2023-09-18T01:54:00;99265;;;23.00;60.06
57250;BME280;43102;52.014;-0.680;2023-09-18T01:55:00;99265;;;23.00;60.06
57250;BME280;43102;52.014;-0.680;2023-09-18T01:56:00;99265;;;23.00;60.06
57250;BME280;43102;52.014;-0.680;2023-09-18T01:57:00;99265;;;23.00;60.06
57250;BME280;43102;52.014;-0.680;2023-09-18T01:58:00;99253;;;22.97;60.31
57250;BME280;43102;52.014;-0.680;2023-09-18T01:59:00;99253;;;22.97;60.31
57250;BME280;43102;52.014;-0.680;2023-09-18T02:00:00;99253;;;22.97;60.31
57250;BME280;43102;52.014;-0.680;2023-09-18T02:01:00;99253;;;22.97;60.31
57250;BME280;43102;52.014;-0.680;2023-09-18T02:02:00;99253;;;22.97;60.31
57250;BME280;43102;52.014;-0.680;2023-09-18T02:03:00;99243;;;22.92;60.15
57250;BME280;43102;52.014;-0.680;2023-09-18T02:04:00;99243;;;22.92;60.15
57250;BME280;43102;52.014;-0.680;2023-09-18T02:05:00;99243;;;22.92;60.15
57250;BME280;43102;52.014;-0.680;2023-09-18T02:06:00;99243;;;22.92;60.15
57250;BME280;43102;52.014;-0.680;2023-09-18T02:07:00;99243;;;22.92;60.15
57250;BME280;43102;52.014;-0.680;2023-09-18T02:08:00;99231;;;22.87;60.06
57250;BME280;43102;52.014;-0.680;2023-09-18T02:09:00;99231;;;22.87;60.06
57250;BME280;43102;52.014;-0.680;2023-09-18T02:10:00;99231;;;22.87;60.06
57250;BME280;43102;52.014;-0.680;2023-09-18T02:11:00;99231;;;22.87;60.06
57250;BME280;43102;52.014;-0.680;2023-09-18T02:12:00;99231;;;22.87;60.06
57250;BME280;43102;52.014;-0.680;2023-09-18T02:13:00;99209;;;22.84;60.15
57250;BME280;43102;52.014;-0.680;2023-09-18T02:14:00;99209;;;22.84;60.15
57250;BME280;43102;52.014;-0.680;2023-09-18T02:15:00;99209;;;22.84;60.15
57250;BME280;43102;52.014;-0.680;2023-09-18T02:16:00;99209;;;22.84;60.15
57250;BME280;43102;52.014;-0.680;2023-09-18T02:17:00;99209;;;22.84;60.15
57250;BME280;43102;52.014;-0.680;2023-09-18T02:18:00;99208;;;22.87;59.70
57250;BME280;43102;52.014;-0.680;2023-09-18T02:19:00;99208;;;22.87;59.70
57250;BME280;43102;52.014;-0.680;2023-09-18T02:20:00;99208;;;22.87;59.70
57250;BME280;43102;52.014;-0.680;2023-09-18T02:21:00;99208;;;22.87;59.70
57250;BME280;43102;52.014;-0.680;2023-09-18T02:22:00;99208;;;22.87;59.70
57250;BME280;43102;52.014;-0.680;2023-09-18T02:23:00;99209;;;22.82;59.68
57250;BME280;43102;52.014;-0.680;2023-09-18T02:24:00;99209;;;22.82;59.68
57250;BME280;43102;52.014;-0.680;2023-09-18T02:25:00;99209;;;22.82;59.68
57250;BME280;43102;52.014;-0.680;2023-09-18T02:26:00;99209;;;22.82;59.68
57250;BME280;43102;52.014;-0.680;2023-09-18T02:27:00;99209;;;22.82;59.68
57250;BME280;43102;52.014;-0.680;2023-09-18T02:28:00;99191;;;22.75;59.90
57250;BME280;43102;52.014;-0.680;2023-09-18T02:29:01;99191;;;22.75;59.90
57250;BME280;43102;52.014;-0.680;2023-09-18T02:30:00;99191;;;22.75;59.90
57250;BME280;43102;52.014;-0.680;2023-09-18T02:31:00;99191;;;22.75;59.90
57250;BME280;43102;52.014;-0.680;2023-09-18T02:32:00;99191;;;22.75;59.90
57250;BME280;43102;52.014;-0.680;2023-09-18T02:33:00;99182;;;22.72;59.68
57250;BME280;43102;52.014;-0.680;2023-09-18T02:34:00;99182;;;22.72;59.68
57250;BME280;43102;52.014;-0.680;2023-09-18T02:35:00;99182;;;22.72;59.68
57250;BME280;43102;52.014;-0.680;2023-09-18T02:36:00;99182;;;22.72;59.68
57250;BME280;43102;52.014;-0.680;2023-09-18T02:37:00;99182;;;22.72;59.68
57250;BME280;43102;52.014;-0.680;2023-09-18T02:38:00;99168;;;22.58;60.03
57250;BME280;43102;52.014;-0.680;2023-09-18T02:39:00;99168;;;22.58;60.03
57250;BME280;43102;52.014;-0.680;2023-09-18T02:40:00;99168;;;22.58;60.03
57250;BME280;43102;52.014;-0.680;2023-09-18T02:41:00;99168;;;22.58;60.03
57250;BME280;43102;52.014;-0.680;2023-09-18T02:42:00;99168;;;22.58;60.03
57250;BME280;43102;52.014;-0.680;2023-09-18T02:43:00;99153;;;22.54;59.91
57250;BME280;43102;52.014;-0.680;2023-09-18T02:44:00;99153;;;22.54;59.91
57250;BME280;43102;52.014;-0.680;2023-09-18T02:45:00;99153;;;22.54;59.91
57250;BME280;43102;52.014;-0.680;2023-09-18T02:46:00;99153;;;22.54;59.91
57250;BME280;43102;52.014;-0.680;2023-09-18T02:47:00;99153;;;22.54;59.91
57250;BME280;43102;52.014;-0.680;2023-09-18T02:48:00;99146;;;22.48;60.12
57250;BME280;43102;52.014;-0.680;2023-09-18T02:49:00;99146;;;22.48;60.12
57250;BME280;43102;52.014;-0.680;2023-09-18T02:50:00;99146;;;22.48;60.12
57250;BME280;43102;52.014;-0.680;2023-09-18T02:51:00;99146;;;22.48;60.12
57250;BME280;43102;52.014;-0.680;2023-09-18T02:52:00;99146;;;22.48;60.12
57250;BME280;43102;52.014;-0.680;2023-09-18T02:53:00;99155;;;22.46;60.06
57250;BME280;43102;52.014;-0.680;2023-09-18T02:54:00;99155;;;22.46;60.06
57250;BME280;43102;52.014;-0.680;2023-09-18T02:55:00;99155;;;22.46;60.06
57250;BME280;43102;52.014;-0.680;2023-09-18T02:56:00;99155;;;22.46;60.06
57250;BME280;43102;52.014;-0.680;2023-09-18T02:57:00;99155;;;22.46;60.06
57250;BME280;43102;52.014;-0.680;2023-09-18T02:58:00;99150;;;22.37;60.56
57250;BME280;43102;52.014;-0.680;2023-09-18T02:59:00;99150;;;22.37;60.56
57250;BME280;43102;52.014;-0.680;2023-09-18T03:00:00;99150;;;22.37;60.56
57250;BME280;43102;52.014;-0.680;2023-09-18T03:01:00;99150;;;22.37;60.56
57250;BME280;43102;52.014;-0.680;2023-09-18T03:02:00;99150;;;22.37;60.56
57250;BME280;43102;52.014;-0.680;2023-09-18T03:03:00;99147;;;22.35;60.51
57250;BME280;43102;52.014;-0.680;2023-09-18T03:04:00;99147;;;22.35;60.51
57250;BME280;43102;52.014;-0.680;2023-09-18T03:05:00;99147;;;22.35;60.51
57250;BME280;43102;52.014;-0.680;2023-09-18T03:06:00;99147;;;22.35;60.51
57250;BME280;43102;52.014;-0.680;2023-09-18T03:07:00;99147;;;22.35;60.51
57250;BME280;43102;52.014;-0.680;2023-09-18T03:08:00;99152;;;22.32;60.09
57250;BME280;43102;52.014;-0.680;2023-09-18T03:09:00;99152;;;22.32;60.09
57250;BME280;43102;52.014;-0.680;2023-09-18T03:10:00;99152;;;22.32;60.09
57250;BME280;43102;52.014;-0.680;2023-09-18T03:11:00;99152;;;22.32;60.09
57250;BME280;43102;52.014;-0.680;2023-09-18T03:12:00;99152;;;22.32;60.09
57250;BME280;43102;52.014;-0.680;2023-09-18T03:13:01;99150;;;22.19;60.27
57250;BME280;43102;52.014;-0.680;2023-09-18T03:14:00;99150;;;22.19;60.27
57250;BME280;43102;52.014;-0.680;2023-09-18T03:15:00;99150;;;22.19;60.27
57250;BME280;43102;52.014;-0.680;2023-09-18T03:16:00;99150;;;22.19;60.27
57250;BME280;43102;52.014;-0.680;2023-09-18T03:17:00;99150;;;22.19;60.27
57250;BME280;43102;52.014;-0.680;2023-09-18T03:18:00;99146;;;22.20;60.05
57250;BME280;43102;52.014;-0.680;2023-09-18T03:19:00;99146;;;22.20;60.05
57250;BME280;43102;52.014;-0.680;2023-09-18T03:20:00;99146;;;22.20;60.05
57250;BME280;43102;52.014;-0.680;2023-09-18T03:21:00;99146;;;22.20;60.05
57250;BME280;43102;52.014;-0.680;2023-09-18T03:22:00;99146;;;22.20;60.05
57250;BME280;43102;52.014;-0.680;2023-09-18T03:23:00;99150;;;22.15;60.00
57250;BME280;43102;52.014;-0.680;2023-09-18T03:24:00;99150;;;22.15;60.00
57250;BME280;43102;52.014;-0.680;2023-09-18T03:25:00;99150;;;22.15;60.00
57250;BME280;43102;52.014;-0.680;2023-09-18T03:26:00;99150;;;22.15;60.00
57250;BME280;43102;52.014;-0.680;2023-09-18T03:27:00;99150;;;22.15;60.00
57250;BME280;43102;52.014;-0.680;2023-09-18T03:28:00;99151;;;22.02;61.08
57250;BME280;43102;52.014;-0.680;2023-09-18T03:29:00;99151;;;22.02;61.08
57250;BME280;43102;52.014;-0.680;2023-09-18T03:30:00;99151;;;22.02;61.08
57250;BME280;43102;52.014;-0.680;2023-09-18T03:31:00;99151;;;22.02;61.08
57250;BME280;43102;52.014;-0.680;2023-09-18T03:32:00;99151;;;22.02;61.08
57250;BME280;43102;52.014;-0.680;2023-09-18T03:33:00;99158;;;21.90;61.07
57250;BME280;43102;52.014;-0.680;2023-09-18T03:34:00;99158;;;21.90;61.07
57250;BME280;43102;52.014;-0.680;2023-09-18T03:35:00;99158;;;21.90;61.07
57250;BME280;43102;52.014;-0.680;2023-09-18T03:36:00;99158;;;21.90;61.07
57250;BME280;43102;52.014;-0.680;2023-09-18T03:37:00;99158;;;21.90;61.07
57250;BME280;43102;52.014;-0.680;2023-09-18T03:38:00;99156;;;21.94;60.64
57250;BME280;43102;52.014;-0.680;2023-09-18T03:39:00;99156;;;21.94;60.64
57250;BME280;43102;52.014;-0.680;2023-09-18T03:40:00;99156;;;21.94;60.64
57250;BME280;43102;52.014;-0.680;2023-09-18T03:41:00;99156;;;21.94;60.64
57250;BME280;43102;52.014;-0.680;2023-09-18T03:42:00;99156;;;21.94;60.64
57250;BME280;43102;52.014;-0.680;2023-09-18T03:43:00;99152;;;21.90;60.56
57250;BME280;43102;52.014;-0.680;2023-09-18T03:44:00;99152;;;21.90;60.56
57250;BME280;43102;52.014;-0.680;2023-09-18T03:45:00;99152;;;21.90;60.56
57250;BME280;43102;52.014;-0.680;2023-09-18T03:46:07;99152;;;21.90;60.56
57250;BME280;43102;52.014;-0.680;2023-09-18T03:47:00;99152;;;21.90;60.56
57250;BME280;43102;52.014;-0.680;2023-09-18T03:48:00;99157;;;21.81;60.61
57250;BME280;43102;52.014;-0.680;2023-09-18T03:49:00;99157;;;21.81;60.61
57250;BME280;43102;52.014;-0.680;2023-09-18T03:50:00;99157;;;21.81;60.61
57250;BME280;43102;52.014;-0.680;2023-09-18T03:51:00;99157;;;21.81;60.61
57250;BME280;43102;52.014;-0.680;2023-09-18T03:52:00;99157;;;21.81;60.61
57250;BME280;43102;52.014;-0.680;2023-09-18T03:53:00;99145;;;21.94;60.28
57250;BME280;43102;52.014;-0.680;2023-09-18T03:54:00;99145;;;21.94;60.28
57250;BME280;43102;52.014;-0.680;2023-09-18T03:55:00;99145;;;21.94;60.28
57250;BME280;43102;52.014;-0.680;2023-09-18T03:56:00;99145;;;21.94;60.28
57250;BME280;43102;52.014;-0.680;2023-09-18T03:57:00;99145;;;21.94;60.28
57250;BME280;43102;52.014;-0.680;2023-09-18T03:58:00;99139;;;21.89;60.55
57250;BME280;43102;52.014;-0.680;2023-09-18T03:59:00;99139;;;21.89;60.55
57250;BME280;43102;52.014;-0.680;2023-09-18T04:00:00;99139;;;21.89;60.55
57250;BME280;43102;52.014;-0.680;2023-09-18T04:01:00;99139;;;21.89;60.55
57250;BME280;43102;52.014;-0.680;2023-09-18T04:02:00;99139;;;21.89;60.55
57250;BME280;43102;52.014;-0.680;2023-09-18T04:03:00;99142;;;21.91;60.44
57250;BME280;43102;52.014;-0.680;2023-09-18T04:04:00;99142;;;21.91;60.44
57250;BME280;43102;52.014;-0.680;2023-09-18T04:05:00;99142;;;21.91;60.44
57250;BME280;43102;52.014;-0.680;2023-09-18T04:06:00;99142;;;21.91;60.44
57250;BME280;43102;52.014;-0.680;2023-09-18T04:07:00;99142;;;21.91;60.44
57250;BME280;43102;52.014;-0.680;2023-09-18T04:08:00;99151;;;21.90;59.99
57250;BME280;43102;52.014;-0.680;2023-09-18T04:09:00;99151;;;21.90;59.99
57250;BME280;43102;52.014;-0.680;2023-09-18T04:10:00;99151;;;21.90;59.99
57250;BME280;43102;52.014;-0.680;2023-09-18T04:11:00;99151;;;21.90;59.99
57250;BME280;43102;52.014;-0.680;2023-09-18T04:12:01;99151;;;21.90;59.99
57250;BME280;43102;52.014;-0.680;2023-09-18T04:13:00;99142;;;21.82;60.45
57250;BME280;43102;52.014;-0.680;2023-09-18T04:14:00;99142;;;21.82;60.45
57250;BME280;43102;52.014;-0.680;2023-09-18T04:15:00;99142;;;21.82;60.45
57250;BME280;43102;52.014;-0.680;2023-09-18T04:16:00;99142;;;21.82;60.45
57250;BME280;43102;52.014;-0.680;2023-09-18T04:17:00;99142;;;21.82;60.45
57250;BME280;43102;52.014;-0.680;2023-09-18T04:18:00;99144;;;21.78;60.28
57250;BME280;43102;52.014;-0.680;2023-09-18T04:19:00;99144;;;21.78;60.28
57250;BME280;43102;52.014;-0.680;2023-09-18T04:20:00;99144;;;21.78;60.28
57250;BME280;43102;52.014;-0.680;2023-09-18T04:21:00;99144;;;21.78;60.28
57250;BME280;43102;52.014;-0.680;2023-09-18T04:22:00;99144;;;21.78;60.28
57250;BME280;43102;52.014;-0.680;2023-09-18T04:24:00;99143;;;21.73;60.44
57250;BME280;43102;52.014;-0.680;2023-09-18T04:25:00;99143;;;21.73;60.44
57250;BME280;43102;52.014;-0.680;2023-09-18T04:26:00;99143;;;21.73;60.44
57250;BME280;43102;52.014;-0.680;2023-09-18T04:27:01;99143;;;21.73;60.44
57250;BME280;43102;52.014;-0.680;2023-09-18T04:28:00;99141;;;21.85;60.37
57250;BME280;43102;52.014;-0.680;2023-09-18T04:29:00;99141;;;21.85;60.37
57250;BME280;43102;52.014;-0.680;2023-09-18T04:30:00;99141;;;21.85;60.37
57250;BME280;43102;52.014;-0.680;2023-09-18T04:31:00;99141;;;21.85;60.37
57250;BME280;43102;52.014;-0.680;2023-09-18T04:32:00;99141;;;21.85;60.37
57250;BME280;43102;52.014;-0.680;2023-09-18T04:33:00;99137;;;21.82;59.89
57250;BME280;43102;52.014;-0.680;2023-09-18T04:34:00;99137;;;21.82;59.89
57250;BME280;43102;52.014;-0.680;2023-09-18T04:35:00;99137;;;21.82;59.89
57250;BME280;43102;52.014;-0.680;2023-09-18T04:36:00;99137;;;21.82;59.89
57250;BME280;43102;52.014;-0.680;2023-09-18T04:37:00;99137;;;21.82;59.89
57250;BME280;43102;52.014;-0.680;2023-09-18T04:38:00;99120;;;21.80;59.58
57250;BME280;43102;52.014;-0.680;2023-09-18T04:39:00;99120;;;21.80;59.58
57250;BME280;43102;52.014;-0.680;2023-09-18T04:40:00;99120;;;21.80;59.58
57250;BME280;43102;52.014;-0.680;2023-09-18T04:41:00;99120;;;21.80;59.58
57250;BME280;43102;52.014;-0.680;2023-09-18T04:42:01;99120;;;21.80;59.58
57250;BME280;43102;52.014;-0.680;2023-09-18T04:43:00;99094;;;21.88;59.30
57250;BME280;43102;52.014;-0.680;2023-09-18T04:44:00;99094;;;21.88;59.30
57250;BME280;43102;52.014;-0.680;2023-09-18T04:45:00;99094;;;21.88;59.30
57250;BME280;43102;52.014;-0.680;2023-09-18T04:46:00;99094;;;21.88;59.30
57250;BME280;43102;52.014;-0.680;2023-09-18T04:47:00;99094;;;21.88;59.30
57250;BME280;43102;52.014;-0.680;2023-09-18T04:48:00;99104;;;21.77;59.15
57250;BME280;43102;52.014;-0.680;2023-09-18T04:49:00;99104;;;21.77;59.15
57250;BME280;43102;52.014;-0.680;2023-09-18T04:50:00;99104;;;21.77;59.15
57250;BME280;43102;52.014;-0.680;2023-09-18T04:51:00;99104;;;21.77;59.15
57250;BME280;43102;52.014;-0.680;2023-09-18T04:52:00;99104;;;21.77;59.15
57250;BME280;43102;52.014;-0.680;2023-09-18T04:53:00;99086;;;21.66;59.21
57250;BME280;43102;52.014;-0.680;2023-09-18T04:54:00;99086;;;21.66;59.21
57250;BME280;43102;52.014;-0.680;2023-09-18T04:55:00;99086;;;21.66;59.21
57250;BME280;43102;52.014;-0.680;2023-09-18T04:56:00;99086;;;21.66;59.21
57250;BME280;43102;52.014;-0.680;2023-09-18T04:57:00;99086;;;21.66;59.21
57250;BME280;43102;52.014;-0.680;2023-09-18T04:58:00;99075;;;21.63;59.55
57250;BME280;43102;52.014;-0.680;2023-09-18T04:59:00;99075;;;21.63;59.55
57250;BME280;43102;52.014;-0.680;2023-09-18T05:00:00;99075;;;21.63;59.55
57250;BME280;43102;52.014;-0.680;2023-09-18T05:01:00;99075;;;21.63;59.55
57250;BME280;43102;52.014;-0.680;2023-09-18T05:02:00;99075;;;21.63;59.55
57250;BME280;43102;52.014;-0.680;2023-09-18T05:03:00;99098;;;21.63;59.33
57250;BME280;43102;52.014;-0.680;2023-09-18T05:04:00;99098;;;21.63;59.33
57250;BME280;43102;52.014;-0.680;2023-09-18T05:05:00;99098;;;21.63;59.33
57250;BME280;43102;52.014;-0.680;2023-09-18T05:06:00;99098;;;21.63;59.33
57250;BME280;43102;52.014;-0.680;2023-09-18T05:07:00;99098;;;21.63;59.33
57250;BME280;43102;52.014;-0.680;2023-09-18T05:08:01;99095;;;21.46;59.27
57250;BME280;43102;52.014;-0.680;2023-09-18T05:09:00;99095;;;21.46;59.27
57250;BME280;43102;52.014;-0.680;2023-09-18T05:10:00;99095;;;21.46;59.27
57250;BME280;43102;52.014;-0.680;2023-09-18T05:11:00;99095;;;21.46;59.27
57250;BME280;43102;52.014;-0.680;2023-09-18T05:12:00;99095;;;21.46;59.27
57250;BME280;43102;52.014;-0.680;2023-09-18T05:13:00;99099;;;21.43;59.38
57250;BME280;43102;52.014;-0.680;2023-09-18T05:14:00;99099;;;21.43;59.38
57250;BME280;43102;52.014;-0.680;2023-09-18T05:15:00;99099;;;21.43;59.38
57250;BME280;43102;52.014;-0.680;2023-09-18T05:16:00;99099;;;21.43;59.38
57250;BME280;43102;52.014;-0.680;2023-09-18T05:17:00;99099;;;21.43;59.38
57250;BME280;43102;52.014;-0.680;2023-09-18T05:18:00;99092;;;21.41;59.44
57250;BME280;43102;52.014;-0.680;2023-09-18T05:19:00;99092;;;21.41;59.44
57250;BME280;43102;52.014;-0.680;2023-09-18T05:20:00;99092;;;21.41;59.44
57250;BME280;43102;52.014;-0.680;2023-09-18T05:21:00;99092;;;21.41;59.44
57250;BME280;43102;52.014;-0.680;2023-09-18T05:22:00;99092;;;21.41;59.44
57250;BME280;43102;52.014;-0.680;2023-09-18T05:23:00;99094;;;21.42;59.19
57250;BME280;43102;52.014;-0.680;2023-09-18T05:24:00;99094;;;21.42;59.19
57250;BME280;43102;52.014;-0.680;2023-09-18T05:25:00;99094;;;21.42;59.19
57250;BME280;43102;52.014;-0.680;2023-09-18T05:26:00;99094;;;21.42;59.19
57250;BME280;43102;52.014;-0.680;2023-09-18T05:27:00;99094;;;21.42;59.19
57250;BME280;43102;52.014;-0.680;2023-09-18T05:28:00;99103;;;21.27;59.87